Terminal Aerodrome Forecast
Issued by NWS Pueblo, CO

Home | Current Version | Previous Version | Text Only | Print | Product List | Glossary On
Versions: 1 2 3 4 5 6 7 8 9 10 11 12 13 14 15 16 17 18 19 20 21 22 23 24 25 26 27 28 29 30 31 32 33 34 35 36 37 38
000
FTUS45 KPUB 020450 AAC
TAFCOS
TAF AMD
KCOS 020450Z 0205/0224 19010KT 2SM -SN BR SCT005 BKN015 OVC035
     FM020700 14007KT 3SM BR VCSH BKN015 OVC025
     FM021400 18012KT 5SM BR BKN015 OVC035=

USA.gov is the U.S. government's official web portal to all federal, state and local government web resources and services.